Time;durP1;ratioP1;P1;durP2;ratioP2;P2;SDS_P1;SDS_P2;PMS_P1;PMS_P2;Temp;Humidity;BMP_temperature;BMP_pressure;BME280_temperature;BME280_humidity;BME280_pressure;Samples;Min_cycle;Max_cycle;Signal;HPM_P1;HPM_P2
2021/10/04 00:00:35;;;;;;;2.15;0.20;;;;;;;9.77;100.00;93010.00;2118328;27;20100;-79
2021/10/04 00:01:36;;;;;;;0.32;0.32;;;;;;;9.81;100.00;93000.75;2121748;27;20032;-83
2021/10/04 00:02:37;;;;;;;1.30;0.40;;;;;;;9.80;100.00;93003.84;2127084;27;20019;-84
2021/10/04 00:03:39;;;;;;;0.75;0.43;;;;;;;9.76;100.00;93008.50;2120989;27;20111;-81
2021/10/04 00:04:41;;;;;;;0.52;0.15;;;;;;;9.72;100.00;93002.50;2107593;28;20039;-80
2021/10/04 00:05:42;;;;;;;0.30;0.30;;;;;;;9.82;100.00;93012.19;2107065;28;20396;-82
2021/10/04 00:06:44;;;;;;;0.20;0.20;;;;;;;9.70;100.00;93015.47;2094528;28;20051;-81
2021/10/04 00:07:45;;;;;;;0.85;0.38;;;;;;;9.78;100.00;93011.50;2111127;28;20130;-81
2021/10/04 00:08:46;;;;;;;0.65;0.40;;;;;;;9.79;100.00;93018.38;2111335;28;20058;-82
2021/10/04 00:09:46;;;;;;;0.63;0.32;;;;;;;9.81;100.00;93024.78;2082272;28;20367;-83
2021/10/04 00:10:48;;;;;;;2.42;0.50;;;;;;;9.93;100.00;93020.00;2090435;28;20016;-79
2021/10/04 00:11:49;;;;;;;0.40;0.40;;;;;;;9.84;100.00;93036.56;2099004;27;20503;-84
2021/10/04 00:12:50;;;;;;;1.98;0.32;;;;;;;9.90;100.00;93031.50;2110707;28;20031;-82
2021/10/04 00:13:51;;;;;;;0.30;0.30;;;;;;;9.90;100.00;93029.56;2105097;28;20465;-77
2021/10/04 00:14:52;;;;;;;0.22;0.20;;;;;;;9.97;100.00;93029.44;2118231;27;20019;-80
2021/10/04 00:15:54;;;;;;;0.68;0.40;;;;;;;9.88;100.00;93034.59;2123117;27;20023;-80
2021/10/04 00:16:56;;;;;;;1.58;0.30;;;;;;;9.99;100.00;93029.75;2104536;28;20116;-81
2021/10/04 00:17:59;;;;;;;2.35;0.38;;;;;;;9.92;100.00;93032.59;2099115;28;20075;-84
2021/10/04 00:19:00;;;;;;;0.35;0.30;;;;;;;9.72;100.00;93024.59;2107616;28;20020;-79
2021/10/04 00:20:02;;;;;;;1.05;0.50;;;;;;;9.65;100.00;93018.63;2098721;28;20031;-81
2021/10/04 00:21:03;;;;;;;0.20;0.20;;;;;;;9.51;100.00;93014.34;2099478;28;20132;-79
2021/10/04 00:22:04;;;;;;;0.40;0.40;;;;;;;9.64;100.00;93017.13;2098909;28;20035;-79
2021/10/04 00:23:05;;;;;;;0.35;0.30;;;;;;;9.71;100.00;93012.41;2106997;28;20056;-85
2021/10/04 00:24:06;;;;;;;0.43;0.43;;;;;;;9.67;100.00;93014.41;2098888;28;20032;-80
2021/10/04 00:25:09;;;;;;;1.30;0.20;;;;;;;9.65;100.00;93023.97;2107113;28;20485;-84
2021/10/04 00:26:11;;;;;;;0.40;0.22;;;;;;;9.74;100.00;93024.91;2115234;28;20028;-79
2021/10/04 00:27:11;;;;;;;1.52;0.38;;;;;;;9.82;100.00;93012.94;2108129;28;20577;-78
2021/10/04 00:28:12;;;;;;;0.38;0.38;;;;;;;9.81;100.00;93016.03;2113080;28;20113;-79
2021/10/04 00:29:13;;;;;;;0.40;0.40;;;;;;;9.77;100.00;93010.75;2107809;28;20020;-80
2021/10/04 00:30:16;;;;;;;0.30;0.30;;;;;;;9.89;100.00;93013.97;2115168;28;20023;-83
2021/10/04 00:31:17;;;;;;;0.38;0.38;;;;;;;9.83;100.00;93003.78;2123983;27;20019;-84
2021/10/04 00:32:18;;;;;;;2.50;0.40;;;;;;;9.80;100.00;93009.19;2115522;27;20653;-79
2021/10/04 00:33:19;;;;;;;0.50;0.50;;;;;;;9.88;100.00;93012.44;2115341;28;20361;-81
2021/10/04 00:34:20;;;;;;;1.10;0.43;;;;;;;9.74;100.00;93014.25;2115540;28;20069;-80
2021/10/04 00:35:24;;;;;;;0.82;0.30;;;;;;;9.93;100.00;93022.66;2115216;28;20019;-84
2021/10/04 00:36:25;;;;;;;0.43;0.40;;;;;;;9.83;100.00;93032.38;2108001;27;20024;-86
2021/10/04 00:37:26;;;;;;;0.20;0.20;;;;;;;9.90;100.00;93026.91;2106724;28;20498;-81
2021/10/04 00:38:27;;;;;;;0.40;0.40;;;;;;;9.72;100.00;93037.19;2098532;28;20020;-80
2021/10/04 00:39:30;;;;;;;0.25;0.25;;;;;;;9.59;100.00;93035.13;2098344;28;20028;-81
2021/10/04 00:40:33;;;;;;;0.75;0.30;;;;;;;9.57;100.00;93029.47;2105072;28;20020;-82
2021/10/04 00:41:35;;;;;;;4.90;0.40;;;;;;;9.63;100.00;93032.41;2098803;28;20138;-79
2021/10/04 00:42:36;;;;;;;1.80;0.32;;;;;;;9.53;100.00;93036.78;2105237;28;20024;-79
2021/10/04 00:43:37;;;;;;;1.85;0.20;;;;;;;9.56;100.00;93035.94;2112187;28;20070;-79
2021/10/04 00:44:38;;;;;;;0.70;0.38;;;;;;;9.59;100.00;93035.13;2114107;28;20515;-79
2021/10/04 00:45:39;;;;;;;0.93;0.40;;;;;;;9.61;100.00;93028.63;2096212;28;20052;-83
2021/10/04 00:46:40;;;;;;;1.08;0.30;;;;;;;9.63;100.00;93029.72;2092814;28;20032;-82
2021/10/04 00:47:41;;;;;;;0.32;0.32;;;;;;;9.66;100.00;93030.81;2093064;28;20028;-80
2021/10/04 00:48:43;;;;;;;0.50;0.40;;;;;;;9.65;100.00;93031.97;2100515;28;20051;-82
2021/10/04 00:49:44;;;;;;;0.50;0.38;;;;;;;9.61;100.00;93034.72;2100681;28;20114;-84
2021/10/04 00:50:45;;;;;;;0.20;0.20;;;;;;;9.58;100.00;93030.22;2109330;28;20423;-87
2021/10/04 00:51:46;;;;;;;0.38;0.32;;;;;;;9.58;100.00;93030.97;2106566;28;20412;-82
2021/10/04 00:52:48;;;;;;;0.47;0.40;;;;;;;9.58;100.00;93033.63;2104124;28;20020;-88
2021/10/04 00:53:51;;;;;;;0.32;0.32;;;;;;;9.58;100.00;93033.63;2115177;28;20153;-83
2021/10/04 00:54:52;;;;;;;1.02;0.40;;;;;;;9.58;100.00;93035.56;2115603;28;20118;-84
2021/10/04 00:55:53;;;;;;;0.73;0.40;;;;;;;9.47;100.00;93037.66;2114165;28;20027;-83
2021/10/04 00:56:54;;;;;;;0.60;0.38;;;;;;;9.51;100.00;93041.00;2101516;28;20069;-81
2021/10/04 00:57:56;;;;;;;0.70;0.35;;;;;;;9.53;100.00;93044.78;2101830;28;20021;-80
2021/10/04 00:58:57;;;;;;;0.50;0.40;;;;;;;9.55;100.00;93047.03;2110827;28;20487;-81
2021/10/04 00:59:59;;;;;;;0.30;0.30;;;;;;;9.48;100.00;93049.81;2111668;28;20121;-85
2021/10/04 01:01:00;;;;;;;0.25;0.25;;;;;;;9.50;100.00;93053.59;2112932;28;20023;-81
2021/10/04 01:02:01;;;;;;;0.20;0.20;;;;;;;9.38;100.00;93054.19;2112947;28;20060;-79
2021/10/04 01:03:02;;;;;;;1.48;0.30;;;;;;;9.34;100.00;93054.25;2104259;28;20035;-80
2021/10/04 01:04:05;;;;;;;0.55;0.30;;;;;;;9.39;100.00;93052.28;2108646;28;20054;-81
2021/10/04 01:05:07;;;;;;;0.68;0.40;;;;;;;9.42;100.00;93056.81;2112194;28;20084;-81
2021/10/04 01:06:09;;;;;;;1.23;0.30;;;;;;;9.48;100.00;93050.59;2109625;28;20019;-80
2021/10/04 01:07:10;;;;;;;0.73;0.30;;;;;;;9.52;100.00;93056.59;2101598;28;20040;-81
2021/10/04 01:08:11;;;;;;;0.30;0.30;;;;;;;9.68;100.00;93039.19;2102360;28;20025;-82
2021/10/04 01:09:12;;;;;;;1.70;0.40;;;;;;;9.57;100.00;93040.13;2104050;28;20020;-83
2021/10/04 01:10:14;;;;;;;2.25;0.30;;;;;;;9.55;100.00;93044.38;2100571;28;20024;-79
2021/10/04 01:11:15;;;;;;;1.05;0.40;;;;;;;9.56;100.00;93051.19;2102444;28;20027;-80
2021/10/04 01:12:16;;;;;;;3.67;0.30;;;;;;;9.55;100.00;93050.47;2112633;28;20059;-81
2021/10/04 01:13:17;;;;;;;0.40;0.38;;;;;;;9.51;100.00;93051.69;2102286;28;20028;-87
2021/10/04 01:14:18;;;;;;;0.35;0.30;;;;;;;9.45;100.00;93056.00;2092547;28;20021;-82
2021/10/04 01:15:21;;;;;;;0.30;0.25;;;;;;;9.49;100.00;93054.03;2093950;28;20055;-80
2021/10/04 01:16:22;;;;;;;1.35;0.35;;;;;;;9.49;100.00;93052.09;2088449;28;20025;-82
2021/10/04 01:17:23;;;;;;;0.30;0.30;;;;;;;9.46;100.00;93054.84;2101195;28;20047;-85
2021/10/04 01:18:24;;;;;;;0.30;0.30;;;;;;;9.44;100.00;93049.91;2110649;28;20054;-83
2021/10/04 01:19:25;;;;;;;0.43;0.30;;;;;;;9.45;100.00;93048.75;2106555;28;20059;-81
2021/10/04 01:20:28;;;;;;;0.50;0.38;;;;;;;9.46;100.00;93038.81;2106897;28;20051;-80
2021/10/04 01:21:29;;;;;;;0.43;0.40;;;;;;;9.51;100.00;93049.03;2106440;28;20757;-87
2021/10/04 01:22:30;;;;;;;1.75;0.50;;;;;;;9.41;100.00;93052.66;2098299;28;20028;-82
2021/10/04 01:23:31;;;;;;;2.17;0.30;;;;;;;9.60;100.00;93041.22;2098088;28;20481;-80
2021/10/04 01:24:32;;;;;;;1.33;0.30;;;;;;;9.54;100.00;93042.88;2090244;28;20021;-83
2021/10/04 01:25:33;;;;;;;3.13;0.50;;;;;;;9.48;100.00;93042.59;2098529;28;20033;-82
2021/10/04 01:26:34;;;;;;;0.40;0.30;;;;;;;9.41;100.00;93047.31;2108546;28;20028;-82
2021/10/04 01:27:36;;;;;;;0.17;0.17;;;;;;;9.42;100.00;93048.81;2107277;28;20024;-83
2021/10/04 01:28:37;;;;;;;0.30;0.30;;;;;;;9.46;100.00;93041.50;2098312;28;20483;-84
2021/10/04 01:29:39;;;;;;;0.70;0.30;;;;;;;9.40;100.00;93048.47;2093360;28;20017;-81
2021/10/04 01:30:40;;;;;;;0.28;0.28;;;;;;;9.36;100.00;93051.22;2098454;28;20071;-81
2021/10/04 01:31:42;;;;;;;0.20;0.20;;;;;;;9.39;100.00;93050.38;2114857;28;20491;-84
2021/10/04 01:32:43;;;;;;;2.83;0.50;;;;;;;9.40;100.00;93043.91;2098165;28;20040;-80
2021/10/04 01:33:44;;;;;;;0.35;0.35;;;;;;;9.32;100.00;93050.50;2082024;28;20025;-81
2021/10/04 01:34:47;;;;;;;0.90;0.40;;;;;;;9.39;100.00;93049.63;2081673;28;20120;-82
2021/10/04 01:35:48;;;;;;;0.30;0.30;;;;;;;9.43;100.00;93044.97;2090155;28;20028;-79
2021/10/04 01:36:49;;;;;;;1.95;0.40;;;;;;;9.36;100.00;93047.78;2089888;28;20036;-83
2021/10/04 01:37:50;;;;;;;1.48;0.50;;;;;;;9.43;100.00;93044.97;2081482;28;20025;-81
2021/10/04 01:38:52;;;;;;;0.25;0.25;;;;;;;9.36;100.00;93039.78;2099178;28;20027;-80
2021/10/04 01:39:53;;;;;;;0.47;0.38;;;;;;;9.34;100.00;93042.84;2114984;28;20027;-81
2021/10/04 01:40:53;;;;;;;0.40;0.38;;;;;;;9.31;100.00;93038.34;2114774;28;20106;-82
2021/10/04 01:41:54;;;;;;;0.95;0.38;;;;;;;9.26;100.00;93039.56;2106475;28;20447;-81
2021/10/04 01:42:55;;;;;;;0.95;0.20;;;;;;;9.28;100.00;93044.50;2114855;28;20023;-82
2021/10/04 01:43:57;;;;;;;0.22;0.20;;;;;;;9.29;100.00;93041.41;2123353;27;20056;-83
2021/10/04 01:44:58;;;;;;;1.42;0.30;;;;;;;9.33;100.00;93046.69;2123317;27;20023;-78
2021/10/04 01:45:59;;;;;;;1.10;0.40;;;;;;;9.20;100.00;93041.19;2106513;28;20377;-84
2021/10/04 01:47:00;;;;;;;0.50;0.35;;;;;;;9.25;100.00;93050.63;2099103;28;20032;-83
2021/10/04 01:48:01;;;;;;;0.88;0.40;;;;;;;9.25;100.00;93055.97;2106181;28;20024;-82
2021/10/04 01:49:03;;;;;;;0.70;0.35;;;;;;;9.26;100.00;93054.81;2098083;28;20016;-82
2021/10/04 01:50:07;;;;;;;1.30;0.28;;;;;;;9.14;100.00;93058.84;2098302;28;20027;-82
2021/10/04 01:51:08;;;;;;;0.40;0.40;;;;;;;9.11;100.00;93059.63;2107258;28;20027;-81
2021/10/04 01:52:09;;;;;;;0.40;0.40;;;;;;;9.18;100.00;93058.78;2106282;28;20051;-82
2021/10/04 01:53:10;;;;;;;0.30;0.30;;;;;;;9.17;100.00;93055.34;2106503;28;20028;-82
2021/10/04 01:54:11;;;;;;;0.25;0.25;;;;;;;9.22;100.00;93046.88;2106314;28;20028;-82
2021/10/04 01:55:13;;;;;;;1.75;0.35;;;;;;;9.20;100.00;93053.78;2106444;28;20024;-85
2021/10/04 01:56:14;;;;;;;1.23;0.30;;;;;;;9.28;100.00;93034.56;2106441;28;20028;-83
2021/10/04 01:57:16;;;;;;;0.60;0.30;;;;;;;9.24;100.00;93028.53;2110103;28;20089;-84
2021/10/04 01:58:17;;;;;;;0.30;0.22;;;;;;;9.21;100.00;93034.69;2098399;28;20075;-84
2021/10/04 01:59:18;;;;;;;0.30;0.30;;;;;;;9.24;100.00;93030.47;2105997;28;20473;-79
2021/10/04 02:00:22;;;;;;;0.50;0.40;;;;;;;9.24;100.00;93033.88;2106515;28;20114;-81
2021/10/04 02:01:23;;;;;;;1.65;0.30;;;;;;;9.23;100.00;93029.72;2114669;28;20023;-86
2021/10/04 02:02:23;;;;;;;0.30;0.30;;;;;;;9.43;100.00;93037.72;2115381;28;20051;-81
2021/10/04 02:03:25;;;;;;;0.20;0.20;;;;;;;9.50;100.00;93044.84;2106377;28;20152;-81
2021/10/04 02:04:28;;;;;;;0.52;0.30;;;;;;;9.40;100.00;93048.47;2090378;28;20041;-80
2021/10/04 02:05:32;;;;;;;1.33;0.43;;;;;;;9.28;100.00;93050.56;2098709;28;20477;-81
2021/10/04 02:07:43;;;;;;;;;;;;;;;9.24;100.00;93057.13;2148965;27;20117;-85
2021/10/04 02:08:44;;;;;;;0.30;0.30;;;;;;;9.30;100.00;93064.25;2139291;27;19910;-82
2021/10/04 02:09:47;;;;;;;1.85;0.43;;;;;;;9.23;100.00;93060.97;2130622;27;20015;-81
2021/10/04 02:10:48;;;;;;;0.40;0.40;;;;;;;9.13;100.00;93064.56;2130835;27;20079;-79
2021/10/04 02:11:49;;;;;;;0.40;0.40;;;;;;;9.20;100.00;93061.78;2139206;27;20030;-83
2021/10/04 02:12:51;;;;;;;4.95;0.50;;;;;;;9.24;100.00;93070.47;2150147;27;20048;-83
2021/10/04 02:13:52;;;;;;;1.15;0.40;;;;;;;9.22;100.00;93067.44;2137711;27;20044;-79
2021/10/04 02:14:53;;;;;;;0.50;0.30;;;;;;;9.20;100.00;93059.84;2142196;27;20033;-83
2021/10/04 02:15:54;;;;;;;4.70;0.80;;;;;;;9.17;100.00;93057.25;2135842;27;20061;-80
2021/10/04 02:16:55;;;;;;;1.05;0.32;;;;;;;9.13;100.00;93048.56;2131222;27;20027;-85
2021/10/04 02:17:57;;;;;;;1.15;0.32;;;;;;;9.10;100.00;93034.13;2139819;27;20026;-81
2021/10/04 02:18:58;;;;;;;1.08;0.32;;;;;;;9.08;100.00;93026.53;2122062;28;20026;-85
2021/10/04 02:19:58;;;;;;;0.55;0.30;;;;;;;9.14;100.00;93026.84;2122202;27;20027;-80
2021/10/04 02:20:59;;;;;;;0.30;0.20;;;;;;;9.16;100.00;93026.41;2131082;27;20052;-84
2021/10/04 02:22:00;;;;;;;0.73;0.38;;;;;;;9.01;100.00;93026.66;2113505;28;20392;-82
2021/10/04 02:23:08;;;;;;;0.40;0.40;;;;;;;9.13;100.00;93024.56;2113632;28;20132;-84
2021/10/04 02:24:12;;;;;;;2.75;0.82;;;;;;;9.15;100.00;93015.00;2114300;28;20056;-82
2021/10/04 02:25:13;;;;;;;0.30;0.30;;;;;;;9.07;100.00;93024.28;2113662;28;20020;-83
2021/10/04 02:26:14;;;;;;;0.85;0.40;;;;;;;9.18;100.00;93018.78;2122387;27;20019;-83
2021/10/04 02:27:15;;;;;;;0.30;0.30;;;;;;;9.28;100.00;93021.25;2130374;27;20046;-84
2021/10/04 02:28:17;;;;;;;0.65;0.35;;;;;;;9.25;100.00;93027.38;2113416;28;20039;-83
2021/10/04 02:29:18;;;;;;;1.75;0.30;;;;;;;9.27;100.00;93033.06;2113876;27;20024;-86
2021/10/04 02:30:22;;;;;;;0.90;0.30;;;;;;;9.28;100.00;93031.16;2113363;28;20106;-81
2021/10/04 02:31:23;;;;;;;0.40;0.30;;;;;;;9.19;100.00;93028.28;2114446;27;20122;-82
2021/10/04 02:32:24;;;;;;;0.70;0.45;;;;;;;9.11;100.00;93026.91;2121964;28;20093;-82
2021/10/04 02:33:25;;;;;;;0.40;0.40;;;;;;;9.06;100.00;93028.88;2122112;27;20389;-84
2021/10/04 02:34:26;;;;;;;0.30;0.30;;;;;;;9.08;100.00;93034.53;2130337;27;20059;-83
2021/10/04 02:35:27;;;;;;;1.02;0.40;;;;;;;9.04;100.00;93030.41;2130566;27;20072;-84
2021/10/04 02:36:28;;;;;;;0.73;0.40;;;;;;;9.01;100.00;93037.34;2130174;27;20026;-81
2021/10/04 02:37:29;;;;;;;0.20;0.20;;;;;;;8.99;100.00;93042.31;2121833;28;20420;-81
2021/10/04 02:38:30;;;;;;;0.57;0.30;;;;;;;8.97;100.00;93038.56;2122175;27;20479;-83
2021/10/04 02:39:30;;;;;;;0.25;0.25;;;;;;;9.03;100.00;93040.34;2121831;28;20034;-83
2021/10/04 02:40:32;;;;;;;0.30;0.22;;;;;;;8.95;100.00;93048.84;2121894;27;20061;-80
2021/10/04 02:41:33;;;;;;;0.30;0.30;;;;;;;9.11;100.00;93045.56;2121680;28;20080;-82
2021/10/04 02:42:35;;;;;;;0.30;0.30;;;;;;;9.14;100.00;93044.75;2105012;28;20066;-82
2021/10/04 02:43:36;;;;;;;0.60;0.43;;;;;;;9.08;100.00;93039.88;2113683;27;20027;-82
2021/10/04 02:44:37;;;;;;;2.83;0.40;;;;;;;8.95;100.00;93049.59;2130170;27;20034;-82
2021/10/04 02:45:38;;;;;;;0.40;0.40;;;;;;;8.98;100.00;93040.81;2121750;28;20027;-80
2021/10/04 02:46:39;;;;;;;2.67;0.50;;;;;;;9.03;100.00;93050.25;2121658;27;20709;-78
2021/10/04 02:47:40;;;;;;;4.03;0.55;;;;;;;9.01;100.00;93045.34;2121569;28;20068;-80
2021/10/04 02:48:41;;;;;;;0.30;0.30;;;;;;;8.99;100.00;93052.22;2113362;28;20027;-81
2021/10/04 02:49:42;;;;;;;0.30;0.30;;;;;;;9.09;100.00;93043.31;2104857;28;20086;-85
2021/10/04 02:50:44;;;;;;;2.65;0.40;;;;;;;9.03;100.00;93058.25;2117707;27;20080;-81
2021/10/04 02:51:45;;;;;;;0.65;0.45;;;;;;;9.04;100.00;93052.53;2130630;27;20047;-85
2021/10/04 02:52:46;;;;;;;0.40;0.30;;;;;;;9.12;100.00;93057.72;2121840;27;20491;-80
2021/10/04 02:53:47;;;;;;;0.40;0.30;;;;;;;9.12;100.00;93068.38;2121875;27;20047;-86
2021/10/04 02:54:49;;;;;;;0.25;0.25;;;;;;;9.10;100.00;93066.13;2121862;27;20026;-84
2021/10/04 02:55:50;;;;;;;0.73;0.30;;;;;;;9.13;100.00;93060.00;2113534;27;20417;-83
2021/10/04 02:56:51;;;;;;;0.77;0.30;;;;;;;9.00;100.00;93069.72;2121769;27;20015;-81
2021/10/04 02:57:52;;;;;;;0.65;0.25;;;;;;;8.98;100.00;93070.13;2130178;27;20050;-88
2021/10/04 02:58:53;;;;;;;0.90;0.70;;;;;;;8.98;100.00;93074.72;2121626;27;20020;-81
2021/10/04 02:59:54;;;;;;;0.63;0.30;;;;;;;9.03;100.00;93087.56;2121829;27;20019;-82
2021/10/04 03:00:55;;;;;;;0.50;0.50;;;;;;;8.99;100.00;93074.28;2121782;27;20102;-81
2021/10/04 03:01:56;;;;;;;0.30;0.30;;;;;;;8.96;100.00;93077.78;2115782;28;20464;-81
2021/10/04 03:02:56;;;;;;;2.60;0.35;;;;;;;8.92;100.00;93074.44;2104887;28;20028;-83
2021/10/04 03:03:57;;;;;;;0.40;0.40;;;;;;;8.96;100.00;93077.03;2097038;28;20021;-86
2021/10/04 03:04:58;;;;;;;0.30;0.30;;;;;;;8.97;100.00;93067.88;2096370;28;20033;-84
2021/10/04 03:05:59;;;;;;;0.38;0.38;;;;;;;9.02;100.00;93070.06;2121841;27;20023;-85
2021/10/04 03:07:00;;;;;;;1.33;0.38;;;;;;;8.97;100.00;93059.88;2130038;27;20459;-86
2021/10/04 03:08:03;;;;;;;3.13;0.47;;;;;;;9.05;100.00;93069.28;2113264;28;20093;-81
2021/10/04 03:09:04;;;;;;;1.08;0.50;;;;;;;8.96;100.00;93056.47;2132469;27;20181;-84
2021/10/04 03:10:06;;;;;;;0.50;0.40;;;;;;;9.00;100.00;93056.38;2124138;27;20379;-82
2021/10/04 03:11:06;;;;;;;1.15;0.40;;;;;;;8.96;100.00;93056.47;2113214;28;20023;-82
2021/10/04 03:12:07;;;;;;;0.73;0.50;;;;;;;8.95;100.00;93062.19;2113190;28;20034;-84
2021/10/04 03:13:09;;;;;;;0.75;0.40;;;;;;;8.92;100.00;93060.34;2121404;28;20023;-86
2021/10/04 03:14:10;;;;;;;0.20;0.20;;;;;;;8.87;100.00;93063.47;2113021;28;20057;-84
2021/10/04 03:15:11;;;;;;;0.85;0.40;;;;;;;8.89;100.00;93064.56;2096313;28;20025;-84
2021/10/04 03:16:11;;;;;;;1.23;0.30;;;;;;;8.90;100.00;93062.66;2113137;28;20028;-84
2021/10/04 03:17:12;;;;;;;0.35;0.35;;;;;;;8.88;100.00;93067.66;2123059;27;20047;-85
2021/10/04 03:18:13;;;;;;;0.60;0.30;;;;;;;8.93;100.00;93056.53;2130006;27;20034;-82
2021/10/04 03:19:14;;;;;;;0.30;0.30;;;;;;;9.03;100.00;93066.25;2115258;28;20077;-86
2021/10/04 03:20:15;;;;;;;0.70;0.70;;;;;;;8.94;100.00;93061.44;2115968;28;20107;-86
2021/10/04 03:21:16;;;;;;;1.45;0.40;;;;;;;8.98;100.00;93066.72;2107465;28;20024;-85
2021/10/04 03:22:17;;;;;;;0.40;0.40;;;;;;;9.15;100.00;93067.59;2099162;28;20805;-85
2021/10/04 03:23:18;;;;;;;0.65;0.40;;;;;;;9.05;100.00;93064.69;2098919;28;20028;-83
2021/10/04 03:24:19;;;;;;;0.47;0.40;;;;;;;9.10;100.00;93065.38;2107598;28;20028;-85
2021/10/04 03:25:21;;;;;;;0.57;0.30;;;;;;;9.10;100.00;93058.13;2115966;27;20024;-87
2021/10/04 03:26:22;;;;;;;0.75;0.30;;;;;;;9.15;100.00;93062.25;2107349;28;20573;-85
2021/10/04 03:27:23;;;;;;;0.73;0.30;;;;;;;9.06;100.00;93057.44;2099066;28;20052;-84
2021/10/04 03:28:24;;;;;;;0.30;0.22;;;;;;;9.16;100.00;93063.75;2107381;28;20700;-85
2021/10/04 03:29:26;;;;;;;0.60;0.40;;;;;;;9.09;100.00;93056.63;2098996;28;20083;-84
2021/10/04 03:30:27;;;;;;;0.45;0.45;;;;;;;9.02;100.00;93057.50;2107680;27;20024;-86
2021/10/04 03:31:28;;;;;;;0.70;0.32;;;;;;;8.98;100.00;93054.13;2107487;28;20016;-84
2021/10/04 03:32:29;;;;;;;1.27;0.40;;;;;;;8.93;100.00;93059.19;2107477;28;20020;-85
2021/10/04 03:33:29;;;;;;;0.73;0.50;;;;;;;8.84;100.00;93059.72;2115762;28;20027;-87
2021/10/04 03:34:30;;;;;;;0.63;0.30;;;;;;;8.83;100.00;93055.53;2107356;28;20028;-82
2021/10/04 03:35:33;;;;;;;1.92;0.50;;;;;;;8.84;100.00;93065.03;2115863;28;20027;-84
2021/10/04 03:36:34;;;;;;;1.15;0.38;;;;;;;8.86;100.00;93061.97;2115675;28;20052;-83
2021/10/04 03:37:35;;;;;;;0.30;0.30;;;;;;;8.82;100.00;93072.66;2107245;28;20024;-87
2021/10/04 03:38:36;;;;;;;0.25;0.25;;;;;;;8.86;100.00;93065.38;2098853;28;20439;-83
2021/10/04 03:39:37;;;;;;;0.40;0.40;;;;;;;9.00;100.00;93067.81;2098901;28;20103;-87
2021/10/04 03:40:38;;;;;;;0.80;0.47;;;;;;;8.95;100.00;93070.19;2098761;28;20082;-86
2021/10/04 03:41:39;;;;;;;0.30;0.30;;;;;;;8.96;100.00;93072.47;2098886;28;20021;-85
2021/10/04 03:42:40;;;;;;;1.20;0.50;;;;;;;8.98;100.00;93072.81;2107296;28;20024;-83
2021/10/04 03:43:41;;;;;;;1.55;0.50;;;;;;;8.90;100.00;93076.72;2107158;28;20027;-84
2021/10/04 03:44:42;;;;;;;0.30;0.30;;;;;;;8.85;100.00;93079.88;2105222;28;20106;-84
2021/10/04 03:45:43;;;;;;;0.32;0.32;;;;;;;8.83;100.00;93071.53;2107193;28;20043;-84
2021/10/04 03:46:44;;;;;;;0.32;0.30;;;;;;;8.87;100.00;93066.91;2098931;28;20024;-83
2021/10/04 03:47:45;;;;;;;0.88;0.47;;;;;;;8.88;100.00;93065.75;2098822;28;20021;-84
2021/10/04 03:48:47;;;;;;;2.80;0.60;;;;;;;8.95;100.00;93062.94;2107190;28;20497;-84
2021/10/04 03:49:47;;;;;;;1.33;0.50;;;;;;;8.91;100.00;93064.94;2115650;28;20483;-83
2021/10/04 03:50:48;;;;;;;1.80;0.50;;;;;;;8.83;100.00;93074.19;2116102;27;20023;-83
2021/10/04 03:51:49;;;;;;;0.47;0.47;;;;;;;8.81;100.00;93076.50;2107185;28;20457;-83
2021/10/04 03:52:50;;;;;;;0.30;0.25;;;;;;;8.82;100.00;93078.00;2098569;28;20031;-86
2021/10/04 03:53:51;;;;;;;0.63;0.30;;;;;;;8.82;100.00;93083.34;2098831;28;20635;-85
2021/10/04 03:54:52;;;;;;;0.55;0.30;;;;;;;8.83;100.00;93061.63;2098677;28;20031;-85
2021/10/04 03:55:53;;;;;;;1.48;0.35;;;;;;;8.87;100.00;93068.78;2107092;28;20024;-85
2021/10/04 03:56:54;;;;;;;0.20;0.20;;;;;;;8.81;100.00;93066.59;2107117;28;20590;-85
2021/10/04 03:57:55;;;;;;;1.73;0.32;;;;;;;8.95;100.00;93070.19;2104170;28;20069;-83
2021/10/04 03:58:56;;;;;;;1.48;0.30;;;;;;;8.94;100.00;93064.09;2105402;28;20024;-82
2021/10/04 03:59:58;;;;;;;0.20;0.20;;;;;;;9.02;100.00;93070.06;2106276;28;20104;-83
2021/10/04 04:00:59;;;;;;;0.35;0.35;;;;;;;8.93;100.00;93073.25;2115690;27;20019;-84
2021/10/04 04:02:00;;;;;;;0.88;0.40;;;;;;;8.84;100.00;93083.69;2115428;28;20361;-85
2021/10/04 04:03:00;;;;;;;0.68;0.40;;;;;;;8.75;100.00;93072.81;2115487;28;20020;-84
2021/10/04 04:04:01;;;;;;;0.75;0.45;;;;;;;8.75;100.00;93070.88;2122702;27;20034;-86
2021/10/04 04:05:04;;;;;;;1.35;0.40;;;;;;;8.76;100.00;93072.38;2106820;28;20430;-85
2021/10/04 04:06:05;;;;;;;0.32;0.32;;;;;;;8.76;100.00;93067.06;2099071;28;20029;-84
2021/10/04 04:07:07;;;;;;;2.50;0.30;;;;;;;8.71;100.00;93070.19;2098400;28;20509;-84
2021/10/04 04:08:08;;;;;;;0.98;0.35;;;;;;;8.70;100.00;93059.94;2107057;28;20020;-84
2021/10/04 04:09:09;;;;;;;0.98;0.40;;;;;;;8.82;100.00;93065.44;2098855;28;20405;-84
2021/10/04 04:10:11;;;;;;;0.40;0.30;;;;;;;8.79;100.00;93068.91;2090452;28;20024;-85
2021/10/04 04:11:13;;;;;;;0.30;0.30;;;;;;;8.78;100.00;93063.97;2110980;27;20088;-83
2021/10/04 04:12:14;;;;;;;1.20;0.30;;;;;;;8.80;100.00;93078.41;2112139;28;20030;-83
2021/10/04 04:13:15;;;;;;;1.25;0.50;;;;;;;8.86;100.00;93076.03;2109986;28;20020;-82
2021/10/04 04:14:16;;;;;;;0.93;0.40;;;;;;;8.98;100.00;93070.13;2125411;27;20090;-83
2021/10/04 04:15:17;;;;;;;0.55;0.40;;;;;;;8.99;100.00;93073.56;2115680;28;20028;-86
2021/10/04 04:16:17;;;;;;;1.02;0.35;;;;;;;8.89;100.00;93082.47;2106963;28;20020;-83
2021/10/04 04:17:18;;;;;;;1.70;0.40;;;;;;;8.99;100.00;93079.63;2090304;28;20095;-84
2021/10/04 04:18:19;;;;;;;0.50;0.40;;;;;;;8.97;100.00;93089.97;2098493;28;20017;-86
2021/10/04 04:19:20;;;;;;;0.47;0.40;;;;;;;8.90;100.00;93090.06;2098439;28;20020;-82
2021/10/04 04:20:21;;;;;;;0.50;0.32;;;;;;;8.81;100.00;93103.16;2115063;28;20448;-85
2021/10/04 04:21:22;;;;;;;0.93;0.35;;;;;;;8.83;100.00;93108.84;2115207;28;20507;-84
2021/10/04 04:22:23;;;;;;;0.30;0.30;;;;;;;8.75;100.00;93110.09;2115013;28;20024;-85
2021/10/04 04:23:24;;;;;;;0.73;0.32;;;;;;;8.76;100.00;93107.03;2106873;28;20038;-84
2021/10/04 04:24:25;;;;;;;0.30;0.30;;;;;;;8.74;100.00;93108.59;2115328;28;20050;-82
2021/10/04 04:25:26;;;;;;;1.92;0.50;;;;;;;8.73;100.00;93107.81;2116021;28;20020;-86
2021/10/04 04:26:27;;;;;;;0.38;0.38;;;;;;;8.68;100.00;93105.63;2115366;28;20016;-85
2021/10/04 04:27:27;;;;;;;0.40;0.40;;;;;;;8.73;100.00;93093.75;2116165;27;20081;-85
2021/10/04 04:28:28;;;;;;;0.30;0.30;;;;;;;8.70;100.00;93097.25;2124465;27;20463;-84
2021/10/04 04:29:30;;;;;;;0.30;0.30;;;;;;;8.74;100.00;93093.38;2123771;27;20019;-85
2021/10/04 04:30:31;;;;;;;0.52;0.50;;;;;;;8.76;100.00;93090.28;2114680;28;20035;-85
2021/10/04 04:31:32;;;;;;;0.70;0.40;;;;;;;8.81;100.00;93093.25;2106756;28;20081;-85
2021/10/04 04:32:34;;;;;;;1.83;0.35;;;;;;;8.76;100.00;93098.28;2106976;28;20116;-84
2021/10/04 04:33:35;;;;;;;0.30;0.30;;;;;;;8.75;100.00;93096.78;2115360;28;20098;-82
2021/10/04 04:34:36;;;;;;;2.83;0.40;;;;;;;8.80;100.00;93093.66;2123719;27;20024;-84
2021/10/04 04:35:37;;;;;;;0.82;0.30;;;;;;;8.73;100.00;93094.50;2106860;28;20477;-86
2021/10/04 04:36:40;;;;;;;0.47;0.38;;;;;;;8.75;100.00;93091.44;2106696;28;20107;-84
2021/10/04 04:37:41;;;;;;;0.98;0.80;;;;;;;8.85;100.00;93093.19;2115220;27;20012;-84
2021/10/04 04:38:42;;;;;;;1.25;1.15;;;;;;;8.85;100.00;93095.09;2115249;28;20027;-84
2021/10/04 04:39:43;;;;;;;1.38;1.27;;;;;;;8.95;100.00;93091.50;2106627;28;20044;-85
2021/10/04 04:40:44;;;;;;;0.40;0.40;;;;;;;9.14;100.00;93090.84;2115188;28;20023;-86
2021/10/04 04:41:45;;;;;;;1.15;1.05;;;;;;;8.94;100.00;93098.75;2115368;28;20488;-83
2021/10/04 04:42:47;;;;;;;1.08;0.90;;;;;;;8.87;100.00;93111.44;2123682;27;20025;-83
2021/10/04 04:43:48;;;;;;;1.05;0.50;;;;;;;8.91;100.00;93117.47;2106890;28;20016;-83
2021/10/04 04:44:48;;;;;;;2.30;0.45;;;;;;;8.90;100.00;93121.28;2115068;28;20082;-83
2021/10/04 04:45:49;;;;;;;0.30;0.30;;;;;;;8.97;100.00;93124.63;2115142;28;20114;-85
2021/10/04 04:46:50;;;;;;;1.35;0.40;;;;;;;8.86;100.00;93128.59;2115111;28;20023;-83
2021/10/04 04:47:52;;;;;;;0.40;0.40;;;;;;;8.90;100.00;93121.28;2123614;27;20416;-85
2021/10/04 04:48:52;;;;;;;0.50;0.50;;;;;;;8.83;100.00;93119.50;2106844;28;20545;-85
2021/10/04 04:49:53;;;;;;;2.38;0.50;;;;;;;8.69;100.00;93127.69;2115284;28;20023;-85